VRG5871 SBSP-SBGO
Flight info
| Callsign | VRG5871 |
|---|---|
| Flight time | 1h 16m |
| Altitude | 32000 |
| Route | GERTU UZ25 PUGOR/N0453F340 UZ25 CORVO |
| Aircraft | B738/M-SDE2E3FGHIRWXY/LB1 |
Departure
| Time | 2026-04-26 23:53 |
|---|---|
| Airport | Congonhas–Deputado Freitas Nobre Airport (SBSP) |
Arrival
| Time | 2026-04-27 01:09 |
|---|---|
| Airport | Santa Genoveva International Airport (SBGO) |
| Time | Latitude | Longitude | Altitude | Speed | Heading |
|---|---|---|---|---|---|
| 2026-04-26 23:32 | -23.62598 | -46.65903 | 2600 ft | 0 kts | 237° |
| 2026-04-26 23:44 | -23.62589 | -46.65889 | 2600 ft | 2 kts | 232° |
| 2026-04-26 23:45 | -23.62577 | -46.65876 | 2600 ft | 2 kts | 210° |
| 2026-04-26 23:45 | -23.62562 | -46.65874 | 2600 ft | 2 kts | 148° |
| 2026-04-26 23:45 | -23.62557 | -46.65878 | 2600 ft | 0 kts | 148° |
| 2026-04-26 23:47 | -23.62585 | -46.65859 | 2600 ft | 9 kts | 147° |
| 2026-04-26 23:48 | -23.62627 | -46.65791 | 2601 ft | 12 kts | 123° |
| 2026-04-26 23:48 | -23.62703 | -46.65730 | 2601 ft | 15 kts | 147° |
| 2026-04-26 23:48 | -23.62797 | -46.65663 | 2602 ft | 17 kts | 148° |
| 2026-04-26 23:48 | -23.62907 | -46.65587 | 2602 ft | 20 kts | 148° |
| 2026-04-26 23:49 | -23.63036 | -46.65521 | 2602 ft | 21 kts | 169° |
| 2026-04-26 23:49 | -23.63163 | -46.65447 | 2601 ft | 20 kts | 146° |
| 2026-04-26 23:49 | -23.63281 | -46.65366 | 2601 ft | 20 kts | 148° |
| 2026-04-26 23:49 | -23.63394 | -46.65287 | 2601 ft | 19 kts | 147° |
| 2026-04-26 23:50 | -23.63488 | -46.65220 | 2600 ft | 15 kts | 142° |
| 2026-04-26 23:50 | -23.63492 | -46.65153 | 2594 ft | 7 kts | 39° |
| 2026-04-26 23:50 | -23.63450 | -46.65122 | 2599 ft | 7 kts | 26° |
| 2026-04-26 23:50 | -23.63409 | -46.65133 | 2602 ft | 0 kts | 328° |
| 2026-04-26 23:52 | -23.63283 | -46.65220 | 2608 ft | 58 kts | 327° |
| 2026-04-26 23:52 | -23.62715 | -46.65612 | 2606 ft | 133 kts | 327° |
| 2026-04-26 23:53 | -23.62126 | -46.66024 | 2689 ft | 165 kts | 327° |
| 2026-04-26 23:53 | -23.61138 | -46.66732 | 3525 ft | 164 kts | 324° |
| 2026-04-26 23:53 | -23.60211 | -46.67431 | 4429 ft | 168 kts | 316° |
| 2026-04-26 23:53 | -23.59630 | -46.68621 | 4811 ft | 189 kts | 284° |
| 2026-04-26 23:54 | -23.59131 | -46.70540 | 5341 ft | 206 kts | 289° |
| 2026-04-26 23:54 | -23.58650 | -46.72118 | 5522 ft | 231 kts | 289° |
| 2026-04-26 23:54 | -23.58297 | -46.73235 | 5787 ft | 240 kts | 289° |
| 2026-04-26 23:54 | -23.57730 | -46.74995 | 6253 ft | 251 kts | 290° |
| 2026-04-26 23:55 | -23.57289 | -46.76879 | 6793 ft | 265 kts | 272° |
| 2026-04-26 23:55 | -23.57626 | -46.78845 | 7284 ft | 270 kts | 248° |
| 2026-04-26 23:55 | -23.58789 | -46.80496 | 7441 ft | 281 kts | 220° |
| 2026-04-26 23:55 | -23.60548 | -46.81460 | 7467 ft | 284 kts | 208° |
| 2026-04-26 23:56 | -23.62031 | -46.82796 | 7462 ft | 275 kts | 237° |
| 2026-04-26 23:56 | -23.63104 | -46.84531 | 7439 ft | 278 kts | 231° |
| 2026-04-26 23:56 | -23.64671 | -46.85784 | 7670 ft | 284 kts | 210° |
| 2026-04-26 23:56 | -23.66478 | -46.86708 | 8465 ft | 286 kts | 207° |
| 2026-04-26 23:57 | -23.68296 | -46.87595 | 9389 ft | 286 kts | 207° |
| 2026-04-26 23:57 | -23.70111 | -46.88506 | 10189 ft | 289 kts | 208° |
| 2026-04-26 23:57 | -23.71990 | -46.89474 | 10526 ft | 311 kts | 208° |
| 2026-04-26 23:57 | -23.73972 | -46.90623 | 10689 ft | 332 kts | 219° |
| 2026-04-26 23:58 | -23.75521 | -46.92523 | 11054 ft | 341 kts | 243° |
| 2026-04-26 23:58 | -23.76219 | -46.94979 | 11702 ft | 341 kts | 266° |
| 2026-04-26 23:58 | -23.76084 | -46.97530 | 12445 ft | 342 kts | 278° |
| 2026-04-26 23:58 | -23.75731 | -47.00112 | 13120 ft | 346 kts | 279° |
| 2026-04-26 23:59 | -23.75365 | -47.02765 | 13764 ft | 351 kts | 278° |
| 2026-04-26 23:59 | -23.75026 | -47.05379 | 14368 ft | 354 kts | 278° |
| 2026-04-26 23:59 | -23.74641 | -47.08039 | 15014 ft | 355 kts | 284° |
| 2026-04-26 23:59 | -23.73614 | -47.10489 | 15632 ft | 359 kts | 304° |
| 2026-04-27 00:00 | -23.71873 | -47.12460 | 16253 ft | 365 kts | 320° |
| 2026-04-27 00:00 | -23.69621 | -47.13804 | 16830 ft | 375 kts | 339° |
| 2026-04-27 00:00 | -23.67063 | -47.14466 | 17413 ft | 381 kts | 345° |
| 2026-04-27 00:00 | -23.64439 | -47.14989 | 17969 ft | 385 kts | 346° |
| 2026-04-27 00:01 | -23.61793 | -47.15524 | 18478 ft | 388 kts | 345° |
| 2026-04-27 00:01 | -23.59141 | -47.16087 | 18969 ft | 389 kts | 345° |
| 2026-04-27 00:01 | -23.56485 | -47.16665 | 19489 ft | 390 kts | 344° |
| 2026-04-27 00:01 | -23.53819 | -47.17250 | 19982 ft | 391 kts | 344° |
| 2026-04-27 00:02 | -23.51141 | -47.17839 | 20458 ft | 393 kts | 344° |
| 2026-04-27 00:02 | -23.48446 | -47.18432 | 20905 ft | 396 kts | 344° |
| 2026-04-27 00:02 | -23.45745 | -47.19025 | 21378 ft | 397 kts | 343° |
| 2026-04-27 00:02 | -23.43064 | -47.19613 | 21844 ft | 398 kts | 343° |
| 2026-04-27 00:03 | -23.40343 | -47.20208 | 22297 ft | 400 kts | 343° |
| 2026-04-27 00:03 | -23.37608 | -47.20807 | 22742 ft | 402 kts | 343° |
| 2026-04-27 00:03 | -23.34863 | -47.21407 | 23194 ft | 403 kts | 343° |
| 2026-04-27 00:03 | -23.32110 | -47.22009 | 23615 ft | 404 kts | 343° |
| 2026-04-27 00:04 | -23.29338 | -47.22615 | 23924 ft | 407 kts | 343° |
| 2026-04-27 00:04 | -23.26541 | -47.23226 | 24212 ft | 410 kts | 343° |
| 2026-04-27 00:04 | -23.23737 | -47.23837 | 24573 ft | 412 kts | 343° |
| 2026-04-27 00:04 | -23.20927 | -47.24449 | 24920 ft | 413 kts | 343° |
| 2026-04-27 00:05 | -23.18099 | -47.25065 | 25252 ft | 415 kts | 343° |
| 2026-04-27 00:05 | -23.15253 | -47.25685 | 25576 ft | 417 kts | 343° |
| 2026-04-27 00:05 | -23.12399 | -47.26306 | 25891 ft | 420 kts | 343° |
| 2026-04-27 00:05 | -23.09528 | -47.26931 | 26170 ft | 423 kts | 343° |
| 2026-04-27 00:06 | -23.06631 | -47.27562 | 26427 ft | 426 kts | 344° |
| 2026-04-27 00:06 | -23.03713 | -47.28196 | 26710 ft | 429 kts | 344° |
| 2026-04-27 00:06 | -23.00786 | -47.28832 | 27028 ft | 430 kts | 344° |
| 2026-04-27 00:06 | -22.97846 | -47.29470 | 27377 ft | 430 kts | 344° |
| 2026-04-27 00:07 | -22.94915 | -47.30105 | 27804 ft | 429 kts | 344° |
| 2026-04-27 00:07 | -22.91994 | -47.30738 | 28225 ft | 427 kts | 344° |
| 2026-04-27 00:07 | -22.89085 | -47.31368 | 28648 ft | 426 kts | 343° |
| 2026-04-27 00:07 | -22.86180 | -47.31998 | 29071 ft | 425 kts | 343° |
| 2026-04-27 00:08 | -22.83283 | -47.32626 | 29486 ft | 425 kts | 343° |
| 2026-04-27 00:08 | -22.80386 | -47.33254 | 29919 ft | 424 kts | 343° |
| 2026-04-27 00:08 | -22.77494 | -47.33881 | 30302 ft | 423 kts | 344° |
| 2026-04-27 00:08 | -22.74646 | -47.34498 | 30690 ft | 421 kts | 343° |
| 2026-04-27 00:09 | -22.71742 | -47.35126 | 31070 ft | 420 kts | 343° |
| 2026-04-27 00:09 | -22.68911 | -47.35751 | 31397 ft | 419 kts | 341° |
| 2026-04-27 00:09 | -22.66221 | -47.36870 | 31691 ft | 411 kts | 326° |
| 2026-04-27 00:09 | -22.63897 | -47.38626 | 31989 ft | 408 kts | 319° |
| 2026-04-27 00:10 | -22.59420 | -47.42461 | 31964 ft | 410 kts | 318° |
| 2026-04-27 00:10 | -22.54981 | -47.46245 | 31962 ft | 404 kts | 319° |
| 2026-04-27 00:11 | -22.50532 | -47.49975 | 31972 ft | 405 kts | 319° |
| 2026-04-27 00:11 | -22.46060 | -47.53707 | 31980 ft | 407 kts | 319° |
| 2026-04-27 00:12 | -22.41085 | -47.56640 | 31978 ft | 418 kts | 342° |
| 2026-04-27 00:12 | -22.35307 | -47.57683 | 31974 ft | 422 kts | 347° |
| 2026-04-27 00:13 | -22.29484 | -47.58574 | 31975 ft | 423 kts | 347° |
| 2026-04-27 00:13 | -22.23663 | -47.59503 | 31979 ft | 423 kts | 347° |
| 2026-04-27 00:14 | -22.17849 | -47.60466 | 31993 ft | 423 kts | 347° |
| 2026-04-27 00:14 | -22.12031 | -47.61441 | 31995 ft | 423 kts | 347° |
| 2026-04-27 00:15 | -22.06213 | -47.62416 | 32002 ft | 422 kts | 347° |
| 2026-04-27 00:15 | -22.00421 | -47.63385 | 32002 ft | 420 kts | 347° |
| 2026-04-27 00:16 | -21.94680 | -47.64344 | 32002 ft | 420 kts | 347° |
| 2026-04-27 00:16 | -21.88902 | -47.65309 | 32002 ft | 420 kts | 347° |
| 2026-04-27 00:17 | -21.83114 | -47.66275 | 31979 ft | 420 kts | 347° |
| 2026-04-27 00:17 | -21.77330 | -47.67240 | 31975 ft | 420 kts | 347° |
| 2026-04-27 00:18 | -21.71539 | -47.68204 | 31975 ft | 420 kts | 347° |
| 2026-04-27 00:18 | -21.65756 | -47.69167 | 31977 ft | 421 kts | 347° |
| 2026-04-27 00:19 | -21.59963 | -47.70130 | 31976 ft | 421 kts | 347° |
| 2026-04-27 00:19 | -21.54171 | -47.71081 | 31980 ft | 421 kts | 347° |
| 2026-04-27 00:20 | -21.48378 | -47.72028 | 31975 ft | 422 kts | 347° |
| 2026-04-27 00:20 | -21.42572 | -47.72977 | 31984 ft | 422 kts | 347° |
| 2026-04-27 00:21 | -21.36803 | -47.73920 | 31997 ft | 422 kts | 347° |
| 2026-04-27 00:21 | -21.30996 | -47.74869 | 32008 ft | 422 kts | 347° |
| 2026-04-27 00:22 | -21.25182 | -47.75819 | 32015 ft | 422 kts | 347° |
| 2026-04-27 00:22 | -21.19370 | -47.76768 | 32020 ft | 422 kts | 348° |
| 2026-04-27 00:23 | -21.13565 | -47.77711 | 32021 ft | 422 kts | 348° |
| 2026-04-27 00:23 | -21.07734 | -47.78532 | 32027 ft | 422 kts | 349° |
| 2026-04-27 00:24 | -21.01903 | -47.79302 | 32015 ft | 422 kts | 349° |
| 2026-04-27 00:24 | -20.96066 | -47.80082 | 32007 ft | 422 kts | 349° |
| 2026-04-27 00:25 | -20.90233 | -47.80873 | 32003 ft | 422 kts | 349° |
| 2026-04-27 00:25 | -20.84400 | -47.81666 | 31997 ft | 422 kts | 349° |
| 2026-04-27 00:26 | -20.78565 | -47.82459 | 31993 ft | 422 kts | 349° |
| 2026-04-27 00:26 | -20.72772 | -47.83246 | 31997 ft | 422 kts | 349° |
| 2026-04-27 00:27 | -20.66942 | -47.84037 | 31994 ft | 422 kts | 349° |
| 2026-04-27 00:27 | -20.61112 | -47.84827 | 31998 ft | 422 kts | 349° |
| 2026-04-27 00:28 | -20.55286 | -47.85616 | 31995 ft | 422 kts | 350° |
| 2026-04-27 00:28 | -20.49453 | -47.86406 | 31993 ft | 422 kts | 350° |
| 2026-04-27 00:29 | -20.43619 | -47.87195 | 31997 ft | 422 kts | 350° |
| 2026-04-27 00:29 | -20.37786 | -47.87984 | 31988 ft | 422 kts | 350° |
| 2026-04-27 00:30 | -20.31958 | -47.88772 | 31989 ft | 422 kts | 350° |
| 2026-04-27 00:30 | -20.26125 | -47.89564 | 31988 ft | 422 kts | 350° |
| 2026-04-27 00:31 | -20.20338 | -47.90349 | 31984 ft | 422 kts | 350° |
| 2026-04-27 00:31 | -20.14471 | -47.91144 | 31985 ft | 422 kts | 350° |
| 2026-04-27 00:32 | -20.08677 | -47.91928 | 32001 ft | 422 kts | 350° |
| 2026-04-27 00:32 | -20.02844 | -47.92717 | 32014 ft | 422 kts | 350° |
| 2026-04-27 00:33 | -19.97012 | -47.93505 | 32039 ft | 422 kts | 350° |
| 2026-04-27 00:33 | -19.91184 | -47.94292 | 32059 ft | 422 kts | 350° |
| 2026-04-27 00:34 | -19.85354 | -47.95079 | 32076 ft | 422 kts | 351° |
| 2026-04-27 00:34 | -19.79514 | -47.95867 | 32075 ft | 422 kts | 351° |
| 2026-04-27 00:35 | -19.73681 | -47.96653 | 32074 ft | 422 kts | 351° |
| 2026-04-27 00:35 | -19.67849 | -47.97438 | 32075 ft | 423 kts | 351° |
| 2026-04-27 00:36 | -19.62007 | -47.98225 | 32063 ft | 423 kts | 351° |
| 2026-04-27 00:36 | -19.56164 | -47.99010 | 32052 ft | 423 kts | 351° |
| 2026-04-27 00:37 | -19.51308 | -47.99663 | 32038 ft | 423 kts | 351° |
| 2026-04-27 00:37 | -19.44480 | -48.00580 | 32031 ft | 423 kts | 351° |
| 2026-04-27 00:38 | -19.39626 | -48.01231 | 32021 ft | 423 kts | 351° |
| 2026-04-27 00:38 | -19.33791 | -48.02014 | 32021 ft | 423 kts | 351° |
| 2026-04-27 00:39 | -19.27954 | -48.02803 | 32023 ft | 422 kts | 351° |
| 2026-04-27 00:39 | -19.22127 | -48.03624 | 32023 ft | 422 kts | 351° |
| 2026-04-27 00:40 | -19.16334 | -48.04446 | 32035 ft | 422 kts | 351° |
| 2026-04-27 00:40 | -19.10509 | -48.05267 | 32058 ft | 423 kts | 351° |
| 2026-04-27 00:41 | -19.04676 | -48.06087 | 32081 ft | 423 kts | 351° |
| 2026-04-27 00:41 | -18.98842 | -48.06907 | 32096 ft | 423 kts | 351° |
| 2026-04-27 00:42 | -18.93004 | -48.07727 | 32110 ft | 423 kts | 351° |
| 2026-04-27 00:42 | -18.87287 | -48.09110 | 32132 ft | 421 kts | 340° |
| 2026-04-27 00:43 | -18.81790 | -48.11286 | 32117 ft | 422 kts | 338° |
| 2026-04-27 00:43 | -18.76295 | -48.13484 | 32106 ft | 422 kts | 339° |
| 2026-04-27 00:44 | -18.70820 | -48.15609 | 32086 ft | 422 kts | 339° |
| 2026-04-27 00:44 | -18.65295 | -48.17721 | 32069 ft | 422 kts | 339° |
| 2026-04-27 00:45 | -18.59763 | -48.19826 | 32045 ft | 422 kts | 339° |
| 2026-04-27 00:45 | -18.54234 | -48.21930 | 32023 ft | 423 kts | 340° |
| 2026-04-27 00:46 | -18.48701 | -48.24035 | 32017 ft | 423 kts | 340° |
| 2026-04-27 00:46 | -18.43163 | -48.26141 | 32007 ft | 423 kts | 340° |
| 2026-04-27 00:47 | -18.37633 | -48.28243 | 31995 ft | 418 kts | 340° |
| 2026-04-27 00:47 | -18.32251 | -48.30286 | 31996 ft | 407 kts | 340° |
| 2026-04-27 00:48 | -18.26901 | -48.32317 | 31870 ft | 410 kts | 340° |
| 2026-04-27 00:48 | -18.24257 | -48.33320 | 31578 ft | 407 kts | 340° |
| 2026-04-27 00:48 | -18.21608 | -48.34325 | 31216 ft | 402 kts | 340° |
| 2026-04-27 00:49 | -18.18974 | -48.35323 | 30714 ft | 403 kts | 340° |
| 2026-04-27 00:49 | -18.16347 | -48.36319 | 30296 ft | 401 kts | 340° |
| 2026-04-27 00:49 | -18.13721 | -48.37315 | 29858 ft | 400 kts | 340° |
| 2026-04-27 00:49 | -18.11108 | -48.38305 | 29405 ft | 398 kts | 340° |
| 2026-04-27 00:50 | -18.08516 | -48.39288 | 29029 ft | 393 kts | 340° |
| 2026-04-27 00:50 | -18.03301 | -48.41263 | 28556 ft | 408 kts | 340° |
| 2026-04-27 00:50 | -18.00609 | -48.42283 | 28308 ft | 413 kts | 340° |
| 2026-04-27 00:51 | -17.97909 | -48.43305 | 27944 ft | 411 kts | 340° |
| 2026-04-27 00:51 | -17.95232 | -48.44318 | 27516 ft | 407 kts | 340° |
| 2026-04-27 00:51 | -17.92573 | -48.45325 | 27067 ft | 405 kts | 340° |
| 2026-04-27 00:51 | -17.89927 | -48.46325 | 26630 ft | 403 kts | 340° |
| 2026-04-27 00:52 | -17.87294 | -48.47321 | 26168 ft | 401 kts | 340° |
| 2026-04-27 00:52 | -17.84674 | -48.48312 | 25709 ft | 400 kts | 340° |
| 2026-04-27 00:52 | -17.82061 | -48.49299 | 25263 ft | 399 kts | 340° |
| 2026-04-27 00:52 | -17.79447 | -48.50286 | 24799 ft | 399 kts | 340° |
| 2026-04-27 00:53 | -17.76836 | -48.51273 | 24345 ft | 398 kts | 340° |
| 2026-04-27 00:53 | -17.74230 | -48.52257 | 23886 ft | 398 kts | 340° |
| 2026-04-27 00:53 | -17.71625 | -48.53240 | 23404 ft | 398 kts | 340° |
| 2026-04-27 00:53 | -17.69039 | -48.54317 | 22634 ft | 403 kts | 336° |
| 2026-04-27 00:54 | -17.66487 | -48.55536 | 22114 ft | 402 kts | 335° |
| 2026-04-27 00:54 | -17.63966 | -48.56786 | 21631 ft | 400 kts | 335° |
| 2026-04-27 00:54 | -17.61459 | -48.58027 | 21183 ft | 397 kts | 335° |
| 2026-04-27 00:54 | -17.58963 | -48.59247 | 20738 ft | 394 kts | 335° |
| 2026-04-27 00:55 | -17.56507 | -48.60435 | 20302 ft | 392 kts | 335° |
| 2026-04-27 00:55 | -17.54036 | -48.61621 | 19873 ft | 389 kts | 335° |
| 2026-04-27 00:55 | -17.51541 | -48.62815 | 19418 ft | 388 kts | 336° |
| 2026-04-27 00:55 | -17.49126 | -48.63968 | 18995 ft | 386 kts | 336° |
| 2026-04-27 00:56 | -17.46690 | -48.65133 | 18549 ft | 384 kts | 336° |
| 2026-04-27 00:56 | -17.44265 | -48.66291 | 18109 ft | 381 kts | 336° |
| 2026-04-27 00:56 | -17.41860 | -48.67439 | 17643 ft | 378 kts | 336° |
| 2026-04-27 00:56 | -17.39478 | -48.68577 | 17220 ft | 374 kts | 336° |
| 2026-04-27 00:57 | -17.37127 | -48.69699 | 16799 ft | 371 kts | 336° |
| 2026-04-27 00:57 | -17.34786 | -48.70816 | 16371 ft | 368 kts | 336° |
| 2026-04-27 00:57 | -17.32467 | -48.71923 | 15944 ft | 365 kts | 336° |
| 2026-04-27 00:57 | -17.30163 | -48.73022 | 15528 ft | 362 kts | 335° |
| 2026-04-27 00:58 | -17.27877 | -48.74113 | 15126 ft | 360 kts | 335° |
| 2026-04-27 00:58 | -17.25602 | -48.75198 | 14706 ft | 358 kts | 335° |
| 2026-04-27 00:58 | -17.23336 | -48.76278 | 14286 ft | 357 kts | 335° |
| 2026-04-27 00:58 | -17.21087 | -48.77350 | 13875 ft | 355 kts | 335° |
| 2026-04-27 00:59 | -17.18842 | -48.78420 | 13423 ft | 354 kts | 335° |
| 2026-04-27 00:59 | -17.16606 | -48.79486 | 12999 ft | 351 kts | 335° |
| 2026-04-27 00:59 | -17.14393 | -48.80540 | 12590 ft | 348 kts | 336° |
| 2026-04-27 00:59 | -17.12196 | -48.81585 | 12183 ft | 346 kts | 336° |
| 2026-04-27 01:00 | -17.10009 | -48.82626 | 11711 ft | 346 kts | 336° |
| 2026-04-27 01:00 | -17.07822 | -48.83665 | 11287 ft | 340 kts | 336° |
| 2026-04-27 01:00 | -17.05697 | -48.84675 | 10888 ft | 330 kts | 336° |
| 2026-04-27 01:00 | -17.03664 | -48.85641 | 10551 ft | 321 kts | 336° |
| 2026-04-27 01:01 | -17.01681 | -48.86583 | 10403 ft | 305 kts | 336° |
| 2026-04-27 01:01 | -16.99800 | -48.87477 | 10258 ft | 290 kts | 336° |
| 2026-04-27 01:01 | -16.97997 | -48.88333 | 10134 ft | 280 kts | 336° |
| 2026-04-27 01:01 | -16.96247 | -48.89163 | 9995 ft | 273 kts | 336° |
| 2026-04-27 01:02 | -16.94518 | -48.89984 | 9725 ft | 273 kts | 336° |
| 2026-04-27 01:02 | -16.92793 | -48.90802 | 9443 ft | 272 kts | 336° |
| 2026-04-27 01:02 | -16.91072 | -48.91619 | 9159 ft | 271 kts | 336° |
| 2026-04-27 01:02 | -16.89355 | -48.92433 | 8879 ft | 270 kts | 336° |
| 2026-04-27 01:03 | -16.87646 | -48.93243 | 8595 ft | 269 kts | 336° |
| 2026-04-27 01:03 | -16.85943 | -48.94051 | 8328 ft | 269 kts | 336° |
| 2026-04-27 01:03 | -16.84244 | -48.94857 | 8056 ft | 268 kts | 336° |
| 2026-04-27 01:03 | -16.82547 | -48.95662 | 7773 ft | 267 kts | 336° |
| 2026-04-27 01:04 | -16.80853 | -48.96464 | 7502 ft | 267 kts | 336° |
| 2026-04-27 01:04 | -16.79185 | -48.97254 | 7259 ft | 266 kts | 336° |
| 2026-04-27 01:04 | -16.77498 | -48.98055 | 7113 ft | 260 kts | 335° |
| 2026-04-27 01:04 | -16.76083 | -48.99168 | 6838 ft | 260 kts | 309° |
| 2026-04-27 01:05 | -16.75113 | -49.00758 | 6573 ft | 260 kts | 300° |
| 2026-04-27 01:05 | -16.74216 | -49.02402 | 6255 ft | 260 kts | 300° |
| 2026-04-27 01:05 | -16.73344 | -49.03989 | 5955 ft | 244 kts | 300° |
| 2026-04-27 01:05 | -16.72520 | -49.05476 | 5698 ft | 229 kts | 300° |
| 2026-04-27 01:06 | -16.71757 | -49.06855 | 5522 ft | 212 kts | 300° |
| 2026-04-27 01:06 | -16.71037 | -49.08144 | 5269 ft | 200 kts | 301° |
| 2026-04-27 01:06 | -16.70352 | -49.09362 | 5014 ft | 190 kts | 301° |
| 2026-04-27 01:06 | -16.69695 | -49.10529 | 4779 ft | 182 kts | 301° |
| 2026-04-27 01:07 | -16.69072 | -49.11639 | 4564 ft | 172 kts | 301° |
| 2026-04-27 01:07 | -16.68465 | -49.12719 | 4307 ft | 172 kts | 301° |
| 2026-04-27 01:07 | -16.67860 | -49.13797 | 4090 ft | 172 kts | 301° |
| 2026-04-27 01:07 | -16.67279 | -49.14832 | 3889 ft | 160 kts | 301° |
| 2026-04-27 01:08 | -16.66726 | -49.15816 | 3670 ft | 153 kts | 301° |
| 2026-04-27 01:08 | -16.66194 | -49.16763 | 3472 ft | 151 kts | 301° |
| 2026-04-27 01:08 | -16.65672 | -49.17699 | 3257 ft | 150 kts | 300° |
| 2026-04-27 01:08 | -16.65148 | -49.18630 | 3021 ft | 150 kts | 301° |
| 2026-04-27 01:09 | -16.64616 | -49.19569 | 2772 ft | 150 kts | 300° |
| 2026-04-27 01:09 | -16.64094 | -49.20502 | 2584 ft | 148 kts | 300° |
| 2026-04-27 01:09 | -16.63581 | -49.21424 | 2459 ft | 131 kts | 300° |
| 2026-04-27 01:09 | -16.63328 | -49.21873 | 2451 ft | 17 kts | 300° |
| 2026-04-27 01:10 | -16.63278 | -49.21963 | 2443 ft | 14 kts | 301° |
| 2026-04-27 01:10 | -16.63225 | -49.22056 | 2452 ft | 16 kts | 300° |
| 2026-04-27 01:10 | -16.63167 | -49.22160 | 2452 ft | 16 kts | 300° |
| 2026-04-27 01:10 | -16.63110 | -49.22260 | 2453 ft | 16 kts | 300° |
| 2026-04-27 01:11 | -16.63056 | -49.22357 | 2455 ft | 15 kts | 300° |
| 2026-04-27 01:11 | -16.63004 | -49.22449 | 2456 ft | 15 kts | 300° |
| 2026-04-27 01:11 | -16.62942 | -49.22529 | 2462 ft | 14 kts | 317° |
| 2026-04-27 01:11 | -16.62870 | -49.22593 | 2458 ft | 13 kts | 325° |
| 2026-04-27 01:12 | -16.62791 | -49.22640 | 2458 ft | 13 kts | 345° |
| 2026-04-27 01:12 | -16.62746 | -49.22576 | 2458 ft | 14 kts | 102° |
| 2026-04-27 01:12 | -16.62795 | -49.22483 | 2458 ft | 15 kts | 120° |
| 2026-04-27 01:12 | -16.62850 | -49.22387 | 2460 ft | 17 kts | 121° |
| 2026-04-27 01:13 | -16.62910 | -49.22277 | 2452 ft | 17 kts | 120° |
| 2026-04-27 01:13 | -16.62970 | -49.22168 | 2450 ft | 18 kts | 114° |
| 2026-04-27 01:13 | -16.62991 | -49.22027 | 2442 ft | 20 kts | 84° |
| 2026-04-27 01:13 | -16.62963 | -49.21886 | 2451 ft | 20 kts | 77° |
| 2026-04-27 01:14 | -16.62934 | -49.21750 | 2458 ft | 19 kts | 78° |
| 2026-04-27 01:14 | -16.62923 | -49.21642 | 2464 ft | 9 kts | 111° |
| 2026-04-27 01:14 | -16.62972 | -49.21610 | 2465 ft | 8 kts | 158° |
| 2026-04-27 01:14 | -16.63023 | -49.21583 | 2461 ft | 8 kts | 149° |
| 2026-04-27 01:15 | -16.63068 | -49.21548 | 2464 ft | 8 kts | 126° |
| 2026-04-27 01:15 | -16.63055 | -49.21502 | 2463 ft | 3 kts | 49° |
| 2026-04-27 01:15 | -16.63040 | -49.21483 | 2461 ft | 0 kts | 49° |
| 2026-04-27 01:15 | -16.63040 | -49.21484 | 2461 ft | 0 kts | 49° |